Time;durP1;ratioP1;P1;durP2;ratioP2;P2;SDS_P1;SDS_P2;PMS_P1;PMS_P2;Temp;Humidity;BMP_temperature;BMP_pressure;BME280_temperature;BME280_humidity;BME280_pressure;Samples;Min_cycle;Max_cycle;Signal;HPM_P1;HPM_P2
2024/01/15 00:01:58;;;;;;;2.65;0.65;;;1.60;99.90;;;;;;4991941;28;20046;-69
2024/01/15 00:04:24;;;;;;;1.60;0.40;;;1.60;99.90;;;;;;4991221;28;20088;-69
2024/01/15 00:06:50;;;;;;;7.10;0.93;;;1.60;99.90;;;;;;4991734;28;20118;-69
2024/01/15 00:09:16;;;;;;;0.03;0.00;;;1.50;99.90;;;;;;5009249;28;20034;-69
2024/01/15 00:11:42;;;;;;;4.15;0.28;;;1.50;99.90;;;;;;4988883;28;20045;-69
2024/01/15 00:14:08;;;;;;;0.15;0.15;;;1.70;99.90;;;;;;4990484;28;20042;-68
2024/01/15 00:16:34;;;;;;;0.47;0.20;;;1.60;99.90;;;;;;4992179;28;20038;-69
2024/01/15 00:19:00;;;;;;;0.00;0.00;;;1.60;99.90;;;;;;4991538;28;20169;-69
2024/01/15 00:21:25;;;;;;;0.00;0.00;;;1.60;99.90;;;;;;4989383;28;20038;-69
2024/01/15 00:23:51;;;;;;;2.83;0.30;;;1.70;99.90;;;;;;4990885;28;20067;-69
2024/01/15 00:26:17;;;;;;;0.00;0.00;;;1.70;99.90;;;;;;4992040;28;20099;-69
2024/01/15 00:28:42;;;;;;;0.80;0.70;;;1.70;99.90;;;;;;4991715;28;20168;-69
2024/01/15 00:31:09;;;;;;;3.03;0.10;;;1.70;99.90;;;;;;4992229;28;20041;-69
2024/01/15 00:33:35;;;;;;;0.00;0.00;;;1.70;99.90;;;;;;4990599;28;20394;-70
2024/01/15 00:36:01;;;;;;;0.00;0.00;;;1.80;99.90;;;;;;4992497;28;20167;-69
2024/01/15 00:38:26;;;;;;;0.30;0.15;;;1.70;99.90;;;;;;4989880;28;20468;-69
2024/01/15 00:40:52;;;;;;;0.17;0.13;;;1.70;99.90;;;;;;4992279;28;20033;-69
2024/01/15 00:43:21;;;;;;;0.95;0.30;;;1.70;99.90;;;;;;4990883;28;20068;-69
2024/01/15 00:45:46;;;;;;;1.08;0.77;;;1.80;99.90;;;;;;4991338;28;20128;-68
2024/01/15 00:48:12;;;;;;;0.60;0.13;;;1.80;99.90;;;;;;4974706;28;20371;-68
2024/01/15 00:50:38;;;;;;;2.63;0.52;;;1.90;99.90;;;;;;4992219;28;20064;-69
2024/01/15 00:53:04;;;;;;;0.17;0.03;;;1.90;99.90;;;;;;4988912;28;20060;-69
2024/01/15 00:55:29;;;;;;;5.10;0.10;;;2.00;99.90;;;;;;4991580;28;20455;-69
2024/01/15 00:57:55;;;;;;;0.20;0.20;;;2.00;99.90;;;;;;4991259;28;20037;-69
2024/01/15 01:00:21;;;;;;;4.22;0.88;;;2.00;99.90;;;;;;4991989;28;20140;-69
2024/01/15 01:02:47;;;;;;;0.00;0.00;;;2.00;99.90;;;;;;4990796;28;20569;-69
2024/01/15 01:05:13;;;;;;;0.08;0.08;;;2.00;99.90;;;;;;4992508;28;20042;-69
2024/01/15 01:07:38;;;;;;;1.27;0.68;;;2.00;99.90;;;;;;4990690;28;20081;-69
2024/01/15 01:10:04;;;;;;;0.28;0.10;;;2.10;99.90;;;;;;4991195;28;20143;-69
2024/01/15 01:12:30;;;;;;;0.00;0.00;;;2.20;99.90;;;;;;4989389;28;20124;-69
2024/01/15 01:14:56;;;;;;;5.32;0.82;;;2.20;99.90;;;;;;4991200;28;20129;-70
2024/01/15 01:17:22;;;;;;;0.10;0.03;;;2.20;99.90;;;;;;4990884;28;20045;-69
2024/01/15 01:19:49;;;;;;;5.93;0.32;;;2.20;99.90;;;;;;4990646;28;20041;-69
2024/01/15 01:22:15;;;;;;;1.75;0.63;;;2.20;99.90;;;;;;4971475;28;20485;-69
2024/01/15 01:24:40;;;;;;;1.75;0.20;;;2.20;99.90;;;;;;4990293;28;20076;-69
2024/01/15 01:27:06;;;;;;;2.55;0.52;;;2.30;99.90;;;;;;4990824;28;20117;-69
2024/01/15 01:29:32;;;;;;;5.35;1.25;;;2.30;99.90;;;;;;4974961;28;20034;-69
2024/01/15 01:31:58;;;;;;;0.30;0.05;;;2.40;99.90;;;;;;4973206;28;20161;-69
2024/01/15 01:34:24;;;;;;;2.33;0.28;;;2.50;99.90;;;;;;4990984;28;20080;-69
2024/01/15 01:36:50;;;;;;;8.88;0.10;;;2.60;99.90;;;;;;4990460;28;20471;-70
2024/01/15 01:39:15;;;;;;;0.20;0.03;;;2.60;99.90;;;;;;4986488;28;20073;-69
2024/01/15 01:41:41;;;;;;;0.00;0.00;;;2.60;99.90;;;;;;4987346;28;20041;-70
2024/01/15 01:44:07;;;;;;;0.00;0.00;;;2.50;99.90;;;;;;4991219;28;20045;-69
2024/01/15 01:46:39;;;;;;;0.00;0.00;;;2.40;99.90;;;;;;4990842;28;20330;-70
2024/01/15 01:49:06;;;;;;;0.00;0.00;;;2.30;99.90;;;;;;4975199;28;20490;-70
2024/01/15 01:51:33;;;;;;;0.00;0.00;;;2.30;99.90;;;;;;4989485;28;20474;-70
2024/01/15 01:53:59;;;;;;;0.20;0.00;;;2.30;99.90;;;;;;4990828;28;20058;-70
2024/01/15 01:56:25;;;;;;;0.00;0.00;;;2.30;99.90;;;;;;4990169;28;20532;-70
2024/01/15 01:58:51;;;;;;;0.00;0.00;;;2.30;99.90;;;;;;4991516;28;20080;-70
2024/01/15 02:01:18;;;;;;;0.00;0.00;;;2.20;99.90;;;;;;4974290;28;20042;-70
2024/01/15 02:03:43;;;;;;;0.00;0.00;;;2.20;99.90;;;;;;4990622;28;20050;-70
2024/01/15 02:06:09;;;;;;;0.00;0.00;;;2.20;99.90;;;;;;4995326;28;20034;-70
2024/01/15 02:08:35;;;;;;;0.00;0.00;;;2.20;99.90;;;;;;4988955;28;20416;-71
2024/01/15 02:11:01;;;;;;;0.05;0.05;;;2.20;99.90;;;;;;4995289;28;20034;-71
2024/01/15 02:13:27;;;;;;;0.00;0.00;;;2.20;99.90;;;;;;4994757;28;20132;-71
2024/01/15 02:15:53;;;;;;;0.00;0.00;;;2.20;99.90;;;;;;4991534;28;20125;-72
2024/01/15 02:18:19;;;;;;;0.00;0.00;;;2.20;99.90;;;;;;4993039;28;20046;-71
2024/01/15 02:20:45;;;;;;;0.28;0.00;;;2.20;99.90;;;;;;4993061;28;20058;-71
2024/01/15 02:23:15;;;;;;;1.17;0.10;;;2.20;99.90;;;;;;4993464;28;20438;-71
2024/01/15 02:25:46;;;;;;;0.60;0.35;;;2.20;99.90;;;;;;4992074;28;20434;-70
2024/01/15 02:28:14;;;;;;;2.22;0.15;;;2.30;99.90;;;;;;4993964;28;20040;-70
2024/01/15 02:30:42;;;;;;;0.00;0.00;;;2.40;99.90;;;;;;4992921;28;20040;-70
2024/01/15 02:33:09;;;;;;;0.30;0.20;;;2.30;99.90;;;;;;4993715;28;20125;-71
2024/01/15 02:35:38;;;;;;;0.00;0.00;;;2.40;99.90;;;;;;4977011;28;20045;-71
2024/01/15 02:38:05;;;;;;;10.45;0.45;;;2.40;99.90;;;;;;4976920;28;20077;-70
2024/01/15 02:40:31;;;;;;;0.75;0.03;;;2.40;99.90;;;;;;4993391;28;20072;-70
2024/01/15 02:42:56;;;;;;;0.00;0.00;;;2.40;99.90;;;;;;4977705;28;20654;-71
2024/01/15 02:45:23;;;;;;;1.30;0.00;;;2.50;99.90;;;;;;4994192;28;20129;-71
2024/01/15 02:47:49;;;;;;;0.00;0.00;;;2.40;99.90;;;;;;4992999;28;20485;-71
2024/01/15 02:50:15;;;;;;;3.80;0.50;;;2.30;99.90;;;;;;4993867;28;20104;-71
2024/01/15 02:52:42;;;;;;;0.00;0.00;;;2.40;99.90;;;;;;4976167;28;20057;-71
2024/01/15 02:55:08;;;;;;;0.00;0.00;;;2.40;99.90;;;;;;4976188;28;20078;-72
2024/01/15 02:57:34;;;;;;;0.00;0.00;;;2.40;99.90;;;;;;4993907;28;20410;-72
2024/01/15 03:00:00;;;;;;;0.00;0.00;;;2.40;99.90;;;;;;4991704;28;20053;-70
2024/01/15 03:02:26;;;;;;;7.68;0.75;;;2.50;99.90;;;;;;4993040;28;20121;-70
2024/01/15 03:04:51;;;;;;;9.85;0.28;;;2.50;99.90;;;;;;4993539;28;20038;-69
2024/01/15 03:07:17;;;;;;;0.43;0.10;;;2.50;99.90;;;;;;4992372;28;20469;-70
2024/01/15 03:09:43;;;;;;;0.60;0.28;;;2.50;99.90;;;;;;4993852;28;20121;-70
2024/01/15 03:12:09;;;;;;;0.30;0.10;;;2.60;99.90;;;;;;4990297;28;20046;-68
2024/01/15 03:14:35;;;;;;;0.20;0.17;;;2.60;99.90;;;;;;4992271;28;20046;-68
2024/01/15 03:17:01;;;;;;;0.00;0.00;;;2.60;99.90;;;;;;4992089;28;20070;-68
2024/01/15 03:19:27;;;;;;;0.08;0.08;;;2.50;99.90;;;;;;4991732;28;20042;-69
2024/01/15 03:21:53;;;;;;;0.75;0.10;;;2.50;99.90;;;;;;4989559;28;20045;-69
2024/01/15 03:24:18;;;;;;;0.00;0.00;;;2.40;99.90;;;;;;4984391;28;20494;-69
2024/01/15 03:26:44;;;;;;;2.42;0.63;;;2.40;99.90;;;;;;4991903;28;20041;-70
2024/01/15 03:29:10;;;;;;;0.00;0.00;;;2.30;99.90;;;;;;4991395;28;20045;-69
2024/01/15 03:31:35;;;;;;;0.00;0.00;;;2.30;99.90;;;;;;4990194;28;20470;-70
2024/01/15 03:34:01;;;;;;;8.63;0.70;;;2.30;99.90;;;;;;4992758;28;20490;-69
2024/01/15 03:36:27;;;;;;;0.00;0.00;;;2.20;99.90;;;;;;4993123;28;20521;-70
2024/01/15 03:38:52;;;;;;;3.00;0.55;;;2.30;99.90;;;;;;4989367;28;20030;-70
2024/01/15 03:41:18;;;;;;;0.00;0.00;;;2.30;99.90;;;;;;4993118;28;20207;-69
2024/01/15 03:43:44;;;;;;;2.17;1.08;;;2.40;99.90;;;;;;4991840;28;20049;-69
2024/01/15 03:46:09;;;;;;;0.00;0.00;;;2.40;99.90;;;;;;4992806;28;20077;-71
2024/01/15 03:48:35;;;;;;;0.03;0.03;;;2.50;99.90;;;;;;4992763;28;20034;-69
2024/01/15 03:51:01;;;;;;;0.00;0.00;;;2.50;99.90;;;;;;4992407;28;20502;-70
2024/01/15 03:53:26;;;;;;;0.20;0.20;;;2.50;99.90;;;;;;4992360;28;20057;-69
2024/01/15 03:55:52;;;;;;;2.42;0.20;;;2.40;99.90;;;;;;4992992;28;20040;-69
2024/01/15 03:58:18;;;;;;;0.00;0.00;;;2.40;99.90;;;;;;4989244;28;20601;-69
2024/01/15 04:00:44;;;;;;;0.03;0.00;;;2.40;99.90;;;;;;4992162;28;20052;-70
2024/01/15 04:03:10;;;;;;;6.75;0.70;;;2.30;99.90;;;;;;4989769;28;20045;-69
2024/01/15 04:05:35;;;;;;;0.03;0.00;;;2.40;99.90;;;;;;4992202;28;20095;-69
2024/01/15 04:08:01;;;;;;;1.02;0.25;;;2.40;99.90;;;;;;4991246;28;20049;-69
2024/01/15 04:10:27;;;;;;;1.77;0.17;;;2.30;99.90;;;;;;4987649;28;20050;-69
2024/01/15 04:12:52;;;;;;;3.30;0.20;;;2.30;99.90;;;;;;4991844;28;20555;-70
2024/01/15 04:15:18;;;;;;;1.17;0.43;;;2.30;99.90;;;;;;4976224;28;20048;-70
2024/01/15 04:17:44;;;;;;;3.83;0.35;;;2.40;99.90;;;;;;4990628;28;20045;-69
2024/01/15 04:20:10;;;;;;;0.63;0.38;;;2.30;99.90;;;;;;4991363;28;20069;-69
2024/01/15 04:22:36;;;;;;;0.65;0.20;;;2.40;99.90;;;;;;4989919;28;20080;-69
2024/01/15 04:25:03;;;;;;;0.00;0.00;;;2.40;99.90;;;;;;4992288;28;20037;-69
2024/01/15 04:27:29;;;;;;;0.30;0.08;;;2.40;99.90;;;;;;5001551;28;20431;-69
2024/01/15 04:29:55;;;;;;;1.75;1.13;;;2.40;99.90;;;;;;4991863;28;20128;-70
2024/01/15 04:32:20;;;;;;;1.30;0.43;;;2.40;99.90;;;;;;4991831;28;20046;-70
2024/01/15 04:34:46;;;;;;;1.55;0.30;;;2.40;99.90;;;;;;4991804;28;20505;-70
2024/01/15 04:37:13;;;;;;;0.95;0.45;;;2.40;99.90;;;;;;4991220;28;20104;-69
2024/01/15 04:39:39;;;;;;;0.10;0.00;;;2.40;99.90;;;;;;4992476;28;20492;-70
2024/01/15 04:42:05;;;;;;;0.00;0.00;;;2.30;99.90;;;;;;4988801;28;20073;-70
2024/01/15 04:44:30;;;;;;;0.35;0.08;;;2.30;99.90;;;;;;4992706;28;20061;-70
2024/01/15 04:46:56;;;;;;;2.55;0.47;;;2.40;99.90;;;;;;4991359;28;20100;-69
2024/01/15 04:49:22;;;;;;;0.20;0.20;;;2.40;99.90;;;;;;4993203;28;20049;-69
2024/01/15 04:51:48;;;;;;;0.17;0.10;;;2.50;99.90;;;;;;4991221;28;20042;-69
2024/01/15 04:54:17;;;;;;;0.00;0.00;;;2.60;99.90;;;;;;4991152;28;20517;-70
2024/01/15 04:56:44;;;;;;;0.60;0.10;;;2.60;99.90;;;;;;4990612;28;20095;-69
2024/01/15 04:59:10;;;;;;;0.95;0.38;;;2.60;99.90;;;;;;4990989;28;20046;-69
2024/01/15 05:01:36;;;;;;;0.00;0.00;;;2.70;99.90;;;;;;4991393;28;20030;-69
2024/01/15 05:04:01;;;;;;;1.75;0.28;;;2.70;99.90;;;;;;4990980;28;20046;-69
2024/01/15 05:06:27;;;;;;;1.75;0.25;;;2.60;99.90;;;;;;4991140;28;20409;-69
2024/01/15 05:08:53;;;;;;;6.22;1.17;;;2.60;99.90;;;;;;4990856;28;20430;-69
2024/01/15 05:11:19;;;;;;;1.05;0.38;;;2.50;99.90;;;;;;4990198;28;20033;-69
2024/01/15 05:13:45;;;;;;;1.00;0.10;;;2.50;99.90;;;;;;4991416;28;20109;-69
2024/01/15 05:16:10;;;;;;;4.63;0.43;;;2.40;99.90;;;;;;4991687;28;20042;-68
2024/01/15 05:18:39;;;;;;;0.00;0.00;;;2.30;99.90;;;;;;4990424;28;20478;-68
2024/01/15 05:21:05;;;;;;;3.30;0.35;;;2.30;99.90;;;;;;5008639;28;20077;-68
2024/01/15 05:23:31;;;;;;;0.20;0.00;;;2.10;99.90;;;;;;4987225;28;20065;-69
2024/01/15 05:25:57;;;;;;;0.00;0.00;;;2.10;99.90;;;;;;4991303;28;20034;-69
2024/01/15 05:28:23;;;;;;;4.38;0.52;;;2.10;99.90;;;;;;4992316;28;20045;-68
2024/01/15 05:30:50;;;;;;;4.95;0.30;;;2.00;99.90;;;;;;4991482;28;20045;-69
2024/01/15 05:33:16;;;;;;;0.30;0.30;;;2.10;99.90;;;;;;4989842;28;20056;-69
2024/01/15 05:35:42;;;;;;;1.55;0.43;;;2.10;99.90;;;;;;4991606;28;20103;-68
2024/01/15 05:38:08;;;;;;;0.95;0.17;;;2.10;99.90;;;;;;4989557;28;20045;-68
2024/01/15 05:40:34;;;;;;;0.17;0.17;;;2.10;99.90;;;;;;4995136;28;20034;-69
2024/01/15 05:42:59;;;;;;;0.25;0.25;;;2.10;99.90;;;;;;4994705;28;20042;-69
2024/01/15 05:45:30;;;;;;;0.00;0.00;;;2.20;99.90;;;;;;4994018;28;20088;-68
2024/01/15 05:47:56;;;;;;;0.55;0.20;;;2.20;99.90;;;;;;4993048;28;20049;-68
2024/01/15 05:50:22;;;;;;;2.63;0.38;;;2.20;99.90;;;;;;4995384;28;20045;-68
2024/01/15 05:52:48;;;;;;;0.05;0.00;;;2.20;99.90;;;;;;4993646;28;20054;-68
2024/01/15 05:55:14;;;;;;;0.10;0.10;;;2.20;99.90;;;;;;4995633;28;20478;-69
2024/01/15 05:57:39;;;;;;;0.10;0.00;;;2.20;99.90;;;;;;4994613;28;20132;-69
2024/01/15 06:00:06;;;;;;;1.17;0.20;;;2.20;99.90;;;;;;4994234;28;20053;-69
2024/01/15 06:02:32;;;;;;;0.95;0.35;;;2.10;99.90;;;;;;4977066;28;20038;-68
2024/01/15 06:04:58;;;;;;;0.00;0.00;;;2.10;99.90;;;;;;4991121;28;20040;-70
2024/01/15 06:07:23;;;;;;;0.47;0.35;;;2.00;99.90;;;;;;4995644;28;20632;-68
2024/01/15 06:09:49;;;;;;;0.05;0.00;;;2.10;99.90;;;;;;4993461;28;20432;-69
2024/01/15 06:12:15;;;;;;;4.32;0.35;;;2.00;99.90;;;;;;4993189;28;20092;-69
2024/01/15 06:14:41;;;;;;;0.20;0.10;;;2.00;99.90;;;;;;4994215;28;20037;-69
2024/01/15 06:17:07;;;;;;;0.20;0.20;;;1.90;99.90;;;;;;4992902;28;20133;-69
2024/01/15 06:19:32;;;;;;;0.32;0.15;;;2.00;99.90;;;;;;4984679;28;20701;-69
2024/01/15 06:21:58;;;;;;;0.00;0.00;;;2.00;99.90;;;;;;4997121;28;20037;-69
2024/01/15 06:24:24;;;;;;;0.00;0.00;;;2.00;99.90;;;;;;4990935;28;20034;-68
2024/01/15 06:26:50;;;;;;;0.25;0.00;;;2.00;99.90;;;;;;4977785;28;20482;-70
2024/01/15 06:29:15;;;;;;;0.22;0.20;;;2.00;99.90;;;;;;4995972;28;20045;-69
2024/01/15 06:31:41;;;;;;;0.00;0.00;;;2.00;99.90;;;;;;4993327;28;20060;-68
2024/01/15 06:34:06;;;;;;;0.17;0.10;;;2.00;99.90;;;;;;4993421;28;20445;-69
2024/01/15 06:36:32;;;;;;;0.00;0.00;;;2.00;99.90;;;;;;4992010;28;20048;-70
2024/01/15 06:38:58;;;;;;;0.65;0.30;;;2.00;99.90;;;;;;4993062;28;20153;-70
2024/01/15 06:41:25;;;;;;;0.00;0.00;;;1.90;99.90;;;;;;4996131;28;20501;-69
2024/01/15 06:43:51;;;;;;;0.00;0.00;;;1.90;99.90;;;;;;4992263;28;20042;-69
2024/01/15 06:46:23;;;;;;;0.00;0.00;;;1.90;99.90;;;;;;4991838;28;20037;-68
2024/01/15 06:48:49;;;;;;;0.15;0.15;;;1.80;99.90;;;;;;4992781;28;20042;-69
2024/01/15 06:51:16;;;;;;;0.65;0.08;;;1.80;99.90;;;;;;4990805;28;20525;-68
2024/01/15 06:53:44;;;;;;;0.00;0.00;;;1.80;99.90;;;;;;4993159;28;20052;-68
2024/01/15 06:56:10;;;;;;;1.92;0.40;;;1.70;99.90;;;;;;5009389;28;20462;-69
2024/01/15 06:58:36;;;;;;;9.23;0.85;;;1.70;99.90;;;;;;4992791;28;20046;-69
2024/01/15 07:01:02;;;;;;;0.00;0.00;;;1.70;99.90;;;;;;4992771;28;20070;-68
2024/01/15 07:03:28;;;;;;;0.00;0.00;;;1.70;99.90;;;;;;4977481;28;20103;-69
2024/01/15 07:05:53;;;;;;;0.32;0.30;;;1.70;99.90;;;;;;4992738;28;20038;-69
2024/01/15 07:08:19;;;;;;;11.85;1.17;;;1.70;99.90;;;;;;4992035;28;20176;-69
2024/01/15 07:10:45;;;;;;;0.00;0.00;;;1.70;99.90;;;;;;4987257;28;20035;-70
2024/01/15 07:13:10;;;;;;;7.43;0.52;;;1.80;99.90;;;;;;4992379;28;20497;-70
2024/01/15 07:15:36;;;;;;;2.25;0.43;;;1.80;99.90;;;;;;4991420;28;20034;-69
2024/01/15 07:18:02;;;;;;;0.22;0.08;;;1.90;99.90;;;;;;4993450;28;20061;-68
2024/01/15 07:20:27;;;;;;;8.68;0.45;;;1.80;99.90;;;;;;4991134;28;20049;-68
2024/01/15 07:22:53;;;;;;;0.30;0.22;;;1.80;99.90;;;;;;4992938;28;20084;-68
2024/01/15 07:25:19;;;;;;;0.03;0.03;;;1.80;99.90;;;;;;4993899;28;20650;-68
2024/01/15 07:27:46;;;;;;;0.10;0.10;;;1.80;99.90;;;;;;4994661;28;20045;-69
2024/01/15 07:30:13;;;;;;;0.17;0.17;;;1.70;99.90;;;;;;4993838;28;20042;-68
2024/01/15 07:32:40;;;;;;;0.13;0.10;;;1.70;99.90;;;;;;5000072;28;20100;-69
2024/01/15 07:35:06;;;;;;;0.60;0.13;;;1.70;99.90;;;;;;4993504;28;20057;-69
2024/01/15 07:37:31;;;;;;;0.00;0.00;;;1.70;99.90;;;;;;4993794;28;20053;-68
2024/01/15 07:39:58;;;;;;;0.00;0.00;;;1.70;99.90;;;;;;4993315;28;20052;-69
2024/01/15 07:42:23;;;;;;;0.28;0.25;;;1.70;99.90;;;;;;4993451;28;20046;-69
2024/01/15 07:44:51;;;;;;;0.73;0.17;;;1.60;99.90;;;;;;5012108;28;20057;-69
2024/01/15 07:47:17;;;;;;;0.45;0.35;;;1.60;99.90;;;;;;4990283;28;20038;-69
2024/01/15 07:49:43;;;;;;;0.00;0.00;;;1.70;99.90;;;;;;4992828;28;20471;-69
2024/01/15 07:52:10;;;;;;;5.18;0.63;;;1.60;99.90;;;;;;4990871;28;20382;-69
2024/01/15 07:54:35;;;;;;;0.10;0.00;;;1.60;99.90;;;;;;4972431;28;20051;-70
2024/01/15 07:57:03;;;;;;;0.03;0.03;;;1.60;99.90;;;;;;4970213;28;20065;-69
2024/01/15 07:59:29;;;;;;;2.25;0.68;;;1.60;99.90;;;;;;4973034;28;20046;-69
2024/01/15 08:01:54;;;;;;;0.32;0.22;;;1.70;99.90;;;;;;4988226;28;20046;-70
2024/01/15 08:04:21;;;;;;;0.20;0.10;;;1.60;99.90;;;;;;4973677;28;20038;-69
2024/01/15 08:06:48;;;;;;;2.22;0.10;;;1.60;99.90;;;;;;4972871;28;20165;-68
2024/01/15 08:09:13;;;;;;;0.00;0.00;;;1.60;99.90;;;;;;4972680;28;20039;-69
2024/01/15 08:11:43;;;;;;;1.60;0.60;;;1.60;99.90;;;;;;4973195;28;20053;-69
2024/01/15 08:14:10;;;;;;;4.10;0.77;;;1.60;99.90;;;;;;4979869;28;20177;-69
2024/01/15 08:16:36;;;;;;;0.03;0.00;;;1.60;99.90;;;;;;4968894;28;20069;-69
2024/01/15 08:19:02;;;;;;;0.10;0.10;;;1.60;99.90;;;;;;4988408;28;20108;-71
2024/01/15 08:21:31;;;;;;;0.57;0.17;;;1.70;99.90;;;;;;4973371;28;20037;-69
2024/01/15 08:23:58;;;;;;;0.25;0.05;;;1.70;99.90;;;;;;4971589;28;20121;-69
2024/01/15 08:26:24;;;;;;;0.00;0.00;;;1.70;99.90;;;;;;4972727;28;20040;-69
2024/01/15 08:28:50;;;;;;;4.97;0.40;;;1.80;99.90;;;;;;4972192;28;20708;-69
2024/01/15 08:31:16;;;;;;;5.22;0.70;;;1.80;99.90;;;;;;4973110;28;20137;-69
2024/01/15 08:33:42;;;;;;;0.10;0.08;;;1.90;99.90;;;;;;4972847;28;20149;-69
2024/01/15 08:36:09;;;;;;;0.00;0.00;;;2.00;99.90;;;;;;4974006;28;20390;-70
2024/01/15 08:38:35;;;;;;;0.38;0.38;;;2.00;99.90;;;;;;4972431;28;20434;-69
2024/01/15 08:41:01;;;;;;;0.00;0.00;;;2.00;99.90;;;;;;4974059;28;20050;-69
2024/01/15 08:43:27;;;;;;;0.10;0.10;;;2.00;99.90;;;;;;4972326;28;20060;-70
2024/01/15 08:45:53;;;;;;;0.80;0.22;;;2.00;99.90;;;;;;4990021;28;20046;-70
2024/01/15 08:48:19;;;;;;;2.00;0.28;;;2.10;99.90;;;;;;4972741;28;20093;-69
2024/01/15 08:50:47;;;;;;;0.00;0.00;;;2.20;99.90;;;;;;4974368;28;20053;-69
2024/01/15 08:53:13;;;;;;;0.57;0.43;;;2.30;99.90;;;;;;4971983;28;20506;-70
2024/01/15 08:55:39;;;;;;;8.07;0.70;;;2.30;99.90;;;;;;4973501;28;20057;-71
2024/01/15 08:58:06;;;;;;;0.25;0.17;;;2.40;99.90;;;;;;4970778;28;20046;-70
2024/01/15 09:00:32;;;;;;;0.00;0.00;;;2.40;99.90;;;;;;4977124;28;20121;-70
2024/01/15 09:02:57;;;;;;;2.95;0.20;;;2.40;99.90;;;;;;4988278;28;20050;-69
2024/01/15 09:05:23;;;;;;;0.43;0.35;;;2.40;99.90;;;;;;4985819;28;20038;-70
2024/01/15 09:07:51;;;;;;;6.70;0.30;;;2.40;99.90;;;;;;4992945;28;20453;-69
2024/01/15 09:10:18;;;;;;;4.78;0.20;;;2.50;99.90;;;;;;4984876;28;20117;-70
2024/01/15 09:12:44;;;;;;;0.85;0.05;;;2.40;99.90;;;;;;4990184;28;20042;-69
2024/01/15 09:15:09;;;;;;;0.00;0.00;;;2.40;99.90;;;;;;4982649;28;20073;-69
2024/01/15 09:17:35;;;;;;;5.13;0.15;;;2.40;99.90;;;;;;4965874;28;20042;-69
2024/01/15 09:20:01;;;;;;;0.00;0.00;;;2.50;99.90;;;;;;4983550;28;20121;-70
2024/01/15 09:22:27;;;;;;;0.98;0.65;;;2.70;99.90;;;;;;4993217;28;20469;-70
2024/01/15 09:24:53;;;;;;;0.05;0.05;;;2.80;99.90;;;;;;4992526;28;20038;-70
2024/01/15 09:27:19;;;;;;;3.03;0.10;;;2.80;99.90;;;;;;4981192;28;20053;-70
2024/01/15 09:29:46;;;;;;;0.32;0.20;;;2.80;99.90;;;;;;4986969;28;20371;-70
2024/01/15 09:32:12;;;;;;;0.20;0.20;;;2.70;99.90;;;;;;4996644;28;20502;-71
2024/01/15 09:34:38;;;;;;;0.60;0.22;;;2.60;99.90;;;;;;4986297;28;20046;-70
2024/01/15 09:37:04;;;;;;;4.45;0.57;;;2.70;99.90;;;;;;4970263;28;20537;-70
2024/01/15 09:39:31;;;;;;;0.63;0.20;;;2.70;99.90;;;;;;4974160;28;20073;-70
2024/01/15 09:41:57;;;;;;;0.52;0.43;;;2.60;99.90;;;;;;5001483;28;20069;-69
2024/01/15 09:44:23;;;;;;;0.13;0.13;;;2.60;99.90;;;;;;4991660;28;20045;-70
2024/01/15 09:46:50;;;;;;;0.28;0.10;;;2.60;99.90;;;;;;4994993;28;20061;-71
2024/01/15 09:49:19;;;;;;;0.30;0.20;;;2.70;99.90;;;;;;4976731;28;20105;-70
2024/01/15 09:51:47;;;;;;;0.00;0.00;;;2.60;99.90;;;;;;4991232;28;20702;-72
2024/01/15 09:54:13;;;;;;;0.00;0.00;;;2.80;99.90;;;;;;4990807;28;20143;-70
2024/01/15 09:56:39;;;;;;;10.95;0.22;;;2.90;99.90;;;;;;4990376;28;20046;-69
2024/01/15 09:59:05;;;;;;;0.40;0.15;;;3.10;99.90;;;;;;4990620;28;20057;-69
2024/01/15 10:01:32;;;;;;;0.10;0.10;;;3.30;99.90;;;;;;4991555;28;20448;-69
2024/01/15 10:04:01;;;;;;;0.17;0.17;;;3.40;99.90;;;;;;4991027;28;20045;-69
2024/01/15 10:06:28;;;;;;;0.05;0.05;;;3.40;99.90;;;;;;4989797;28;20504;-69
2024/01/15 10:08:54;;;;;;;7.57;0.35;;;3.40;99.90;;;;;;4990210;28;20358;-70
2024/01/15 10:11:20;;;;;;;2.50;0.20;;;3.50;99.90;;;;;;5002572;28;20035;-70
2024/01/15 10:13:46;;;;;;;0.03;0.03;;;3.40;99.90;;;;;;4991524;28;20436;-70
2024/01/15 10:16:12;;;;;;;1.98;0.20;;;3.30;99.90;;;;;;4991678;28;20323;-69
2024/01/15 10:18:39;;;;;;;1.00;0.47;;;3.20;99.90;;;;;;4989280;28;20129;-69
2024/01/15 10:21:07;;;;;;;0.20;0.20;;;3.10;99.90;;;;;;4992335;28;20045;-69
2024/01/15 10:23:33;;;;;;;0.22;0.10;;;3.20;99.90;;;;;;4989957;28;20042;-69
2024/01/15 10:25:58;;;;;;;0.80;0.38;;;3.20;99.90;;;;;;4993048;28;20515;-70
2024/01/15 10:28:27;;;;;;;1.17;0.00;;;3.20;99.90;;;;;;5009063;28;20045;-70
2024/01/15 10:30:55;;;;;;;0.43;0.30;;;3.10;99.90;;;;;;4997772;28;20535;-70
2024/01/15 10:33:25;;;;;;;0.00;0.00;;;3.00;99.90;;;;;;4994349;28;20038;-70
2024/01/15 10:35:56;;;;;;;1.73;0.50;;;3.00;99.90;;;;;;4989325;28;20068;-69
2024/01/15 10:38:23;;;;;;;0.15;0.13;;;3.00;99.90;;;;;;4993981;28;20607;-71
2024/01/15 10:40:54;;;;;;;0.00;0.00;;;3.00;99.90;;;;;;4994556;28;20092;-71
2024/01/15 10:43:20;;;;;;;0.08;0.00;;;3.20;99.90;;;;;;4993711;28;20081;-70
2024/01/15 10:45:47;;;;;;;0.13;0.05;;;3.20;99.90;;;;;;4994650;28;20065;-71
2024/01/15 10:48:13;;;;;;;0.10;0.00;;;3.20;99.90;;;;;;4993799;28;20077;-71
2024/01/15 10:50:39;;;;;;;2.92;0.30;;;3.10;99.90;;;;;;4996442;28;20034;-70
2024/01/15 10:53:06;;;;;;;0.00;0.00;;;3.10;99.90;;;;;;4992959;28;20520;-70
2024/01/15 10:55:33;;;;;;;0.00;0.00;;;3.20;99.90;;;;;;4992759;28;20440;-70
2024/01/15 10:57:59;;;;;;;0.70;0.28;;;3.20;99.90;;;;;;4993165;28;20050;-70
2024/01/15 11:00:26;;;;;;;0.00;0.00;;;3.30;99.90;;;;;;4991555;28;20049;-70
2024/01/15 11:02:55;;;;;;;0.90;0.55;;;3.40;99.90;;;;;;4979678;28;20053;-71
2024/01/15 11:05:22;;;;;;;5.75;0.43;;;3.40;99.90;;;;;;4988566;28;20042;-71
2024/01/15 11:07:54;;;;;;;0.00;0.00;;;3.50;99.90;;;;;;4991761;28;20052;-71
2024/01/15 11:10:42;;;;;;;0.00;0.00;;;3.50;99.90;;;;;;4994048;28;20045;-71
2024/01/15 11:13:35;;;;;;;0.00;0.00;;;3.50;99.90;;;;;;4993747;28;20449;-71
2024/01/15 11:16:01;;;;;;;0.00;0.00;;;3.50;99.90;;;;;;4988642;28;20060;-71
2024/01/15 11:18:40;;;;;;;0.00;0.00;;;3.50;99.90;;;;;;4993811;28;20389;-71
2024/01/15 11:21:15;;;;;;;0.85;0.17;;;3.50;99.90;;;;;;4986098;28;20125;-71
2024/01/15 11:23:58;;;;;;;0.00;0.00;;;3.40;99.90;;;;;;4994824;28;20348;-71
2024/01/15 11:26:32;;;;;;;0.00;0.00;;;3.50;99.90;;;;;;4976688;28;20056;-71
2024/01/15 11:29:05;;;;;;;0.00;0.00;;;3.50;99.90;;;;;;4991434;28;20038;-71
2024/01/15 11:31:40;;;;;;;1.00;0.10;;;3.50;99.90;;;;;;4991940;28;20041;-72
2024/01/15 11:34:09;;;;;;;;;;;3.50;99.90;;;;;;4993085;28;20050;-71
2024/01/15 11:36:53;;;;;;;0.00;0.00;;;3.50;99.90;;;;;;4991259;28;20374;-71
2024/01/15 11:39:41;;;;;;;0.08;0.03;;;3.50;99.90;;;;;;4973840;28;20481;-71
2024/01/15 11:42:09;;;;;;;0.00;0.00;;;3.50;99.90;;;;;;4991550;28;20081;-71
2024/01/15 11:44:35;;;;;;;0.00;0.00;;;3.50;99.90;;;;;;4989674;28;20042;-71
2024/01/15 11:47:03;;;;;;;0.00;0.00;;;3.50;99.90;;;;;;4974320;28;20038;-71
2024/01/15 11:49:50;;;;;;;0.00;0.00;;;3.50;99.90;;;;;;4991624;28;20152;-71
2024/01/15 11:52:21;;;;;;;0.52;0.08;;;3.50;99.90;;;;;;4989341;28;20505;-71
2024/01/15 11:55:22;;;;;;;1.35;0.20;;;3.50;99.90;;;;;;4970773;28;20592;-70
2024/01/15 11:57:56;;;;;;;1.25;0.22;;;3.50;99.90;;;;;;4988716;28;20034;-70
2024/01/15 12:00:23;;;;;;;0.00;0.00;;;3.60;99.90;;;;;;4987919;28;20070;-70
2024/01/15 12:02:52;;;;;;;0.10;0.03;;;3.60;99.90;;;;;;4970912;28;20043;-67
2024/01/15 12:05:20;;;;;;;0.00;0.00;;;3.60;99.90;;;;;;4988147;28;20038;-70
2024/01/15 12:07:48;;;;;;;0.00;0.00;;;3.50;99.90;;;;;;4987489;28;20117;-70
2024/01/15 12:10:19;;;;;;;1.42;0.40;;;3.40;99.90;;;;;;4990002;28;20048;-68
2024/01/15 12:13:09;;;;;;;1.45;0.00;;;3.30;99.90;;;;;;4968433;28;20462;-69
2024/01/15 12:15:38;;;;;;;0.00;0.00;;;3.20;99.90;;;;;;4972099;28;20038;-69
2024/01/15 12:18:04;;;;;;;0.00;0.00;;;3.00;99.90;;;;;;4985798;28;20069;-68
2024/01/15 12:20:30;;;;;;;0.00;0.00;;;2.80;99.90;;;;;;4986879;28;20281;-69
2024/01/15 12:22:56;;;;;;;0.00;0.00;;;2.60;99.90;;;;;;4984500;28;20125;-69
2024/01/15 12:25:23;;;;;;;0.00;0.00;;;2.60;99.90;;;;;;4987801;28;20046;-69
2024/01/15 12:27:49;;;;;;;0.10;0.00;;;2.50;99.90;;;;;;4971581;28;20528;-68
2024/01/15 12:30:15;;;;;;;0.10;0.00;;;2.50;99.90;;;;;;4988396;28;20152;-69
2024/01/15 12:32:42;;;;;;;5.15;0.75;;;2.40;99.90;;;;;;4971903;28;20089;-69
2024/01/15 12:35:08;;;;;;;0.10;0.10;;;2.40;99.90;;;;;;4987766;28;20034;-68
2024/01/15 12:37:41;;;;;;;0.05;0.00;;;2.40;99.90;;;;;;4973113;28;20050;-69
2024/01/15 12:40:09;;;;;;;0.20;0.20;;;2.40;99.90;;;;;;4971542;28;20044;-68
2024/01/15 12:42:40;;;;;;;0.00;0.00;;;2.40;99.90;;;;;;4988603;28;20046;-67
2024/01/15 12:45:06;;;;;;;0.00;0.00;;;2.40;99.90;;;;;;4988769;28;20541;-69
2024/01/15 12:47:32;;;;;;;0.00;0.00;;;2.50;99.90;;;;;;4985724;28;20042;-70
2024/01/15 12:50:01;;;;;;;0.00;0.00;;;2.40;99.90;;;;;;4986983;28;20045;-70
2024/01/15 12:52:28;;;;;;;0.00;0.00;;;2.60;99.90;;;;;;4987673;28;20034;-70
2024/01/15 12:54:54;;;;;;;0.00;0.00;;;2.50;99.90;;;;;;4989365;28;20071;-69
2024/01/15 12:57:20;;;;;;;6.55;0.22;;;2.60;99.90;;;;;;4989260;28;20401;-67